Lakeland Linder Regional Airport
KLAL : rendu visible

Aérodrome :











RETROUVEZ-NOUS SUR...

 
LOGIN :

S'inscrire | Disclaimer

   EN    FR    IT 

 









Légende :    VFR   VFR Marginal   IFR   IFR Intensif   IFR Très Intensif
Visi : 
Plafond : 
>= 8 km
>= 3000ft
5 à 8 km
1000 à 3000 ft
1500m à 5 km
500 à 1000 ft
800 à 1500m
200 à 500 ft
< 800m
< 200 ft
Symboles :   Orages  Brouillard  Fortes neiges  Fortes précipitations  Vent > 20 kt






- Altitude de l'aérodrome : 142 ft


KLAL - Lakeland Linder Regional

DERNIER METAR :
  • 200455Z AUTO 00000KT 10SM CLR 10/07 A3006 RMK AO2 PNO

METARs EXPIRÉS :
  • 200435Z AUTO 00000KT 7SM CLR 10/09 A3006 RMK AO2 PNO
  • 200415Z AUTO 00000KT 4SM BR CLR 10/08 A3006 RMK AO2 PNO
  • 200355Z AUTO 00000KT 10SM CLR 10/09 A3006 RMK AO2 PNO
  • 200335Z AUTO 00000KT 10SM CLR 11/09 A3006 RMK AO2 PNO
  • 200315Z AUTO 00000KT 10SM CLR 11/09 A3006 RMK AO2 PNO
  • 200250Z 00000KT 10SM SKC 11/09 A3006
  • 200150Z 00000KT 10SM SKC 12/09 A3006

TAF KLAL
Valide du 20 à 00h jusqu'au 21 à 00h UTC


192330Z 2000/2024 31005KT P6SM SKC
FM200100 VRB03KT P6SM SKC
FM201500 36007KT P6SM SKC AMD NOT SKED 2002/2011



MET'MAP, la Météo Aéronautique d'un coup d'oeil ! - Copyright ORBIFLY Décembre 2007 - Disclaimer

ORBIFLY MET'MAP TEAM :

Programmation & Développement : Alexandra Zaïnal
Conception & Développement : Baudouin d'Aumeries
Co-Programmation & Développement : Marc-Olivier Méhu
Soutien technique & logistique : Manuel Goepfert

Contact : metmap@orbifly.com




SOURCES & CREDITS :

   NOAA       Earth
Advisory